DW9177 Weather Reports


Display with metric or nautical units.
time (UTC)temp
F
wind
direction
speed
MPH
gust
MPH
rain 1hr
in
rain 24hr
in
rain mn
in
humidity
%
barometer
mb
20240521234559 94 297 5.0 11.0 0.00 0.00 0.00 10 1003.9
20240521233058 93 230 5.0 11.0 0.00 0.00 0.00 10 1003.9
20240521231607 93 240 4.0 11.0 0.00 0.00 0.00 10 1004.0
20240521230110 93 226 5.0 11.0 0.00 0.00 0.00 10 1004.1
20240521224607 93 352 6.0 14.0 0.00 0.00 0.00 11 1004.3
20240521223052 93 218 5.0 12.0 0.00 0.00 0.00 10 1004.3
20240521221551 92 339 6.0 16.0 0.00 0.00 0.00 10 1004.5
20240521220049 93 283 4.0 10.0 0.00 0.00 0.00 10 1004.6
20240521214552 93 231 7.0 13.0 0.00 0.00 0.00 11 1004.7
20240521213050 93 284 2.0 11.0 0.00 0.00 0.00 11 1004.9
20240521211544 93 286 2.0 9.0 0.00 0.00 0.00 11 1005.1
20240521210042 93 282 3.0 8.0 0.00 0.00 0.00 12 1005.1
20240521204540 92 298 4.0 9.0 0.00 0.00 0.00 12 1005.3
20240521203048 91 294 6.0 11.0 0.00 0.00 0.00 13 1005.5
20240521201541 90 262 0.0 7.0 0.00 0.00 0.00 13 1005.6
20240521200041 90 262 3.0 11.0 0.00 0.00 0.00 15 1005.9
20240521194544 90 278 3.0 9.0 0.00 0.00 0.00 14 1006.1
20240521193032 90 287 5.0 10.0 0.00 0.00 0.00 15 1006.2
20240521191535 90 270 2.0 12.0 0.00 0.00 0.00 15 1006.3
20240521190025 89 321 0.0 5.0 0.00 0.00 0.00 16 1006.4
20240521184529 88 292 3.0 10.0 0.00 0.00 0.00 17 1006.7
20240521183028 87 300 0.0 4.0 0.00 0.00 0.00 19 1006.8
20240521181517 86 307 1.0 10.0 0.00 0.00 0.00 20 1007.0
20240521180017 86 271 1.0 10.0 0.00 0.00 0.00 20 1007.1
20240521174513 86 68 0.0 4.0 0.00 0.00 0.00 20 1007.1
20240521173022 85 263 0.0 8.0 0.00 0.00 0.00 21 1007.3
20240521171510 85 231 2.0 8.0 0.00 0.00 0.00 20 1007.5
20240521170006 84 117 2.0 8.0 0.00 0.00 0.00 21 1007.6
20240521164505 84 233 4.0 10.0 0.00 0.00 0.00 22 1007.6
20240521163005 83 216 1.0 7.0 0.00 0.00 0.00 22 1007.7
20240521161501 82 250 2.0 4.0 0.00 0.00 0.00 23 1007.8
20240521160058 81 240 1.0 5.0 0.00 0.00 0.00 25 1007.8
20240521154610 80 238 1.0 6.0 0.00 0.00 0.00 25 1007.8
20240521153054 81 229 1.0 4.0 0.00 0.00 0.00 25 1008.0
20240521151552 80 188 0.0 4.0 0.00 0.00 0.00 26 1007.9
20240521150049 79 150 0.0 2.0 0.00 0.00 0.00 27 1007.9
20240521144545 77 235 0.0 4.0 0.00 0.00 0.00 28 1007.9
20240521143042 75 136 2.0 6.0 0.00 0.00 0.00 29 1007.8
20240521141603 73 130 1.0 3.0 0.00 0.00 0.00 31 1007.7
20240521140036 72 188 0.0 2.0 0.00 0.00 0.00 33 1007.7
20240521134531 69 155 0.0 1.0 0.00 0.00 0.00 36 1007.7
20240521133036 67 120 0.0 3.0 0.00 0.00 0.00 38 1007.6
20240521131528 65 129 0.0 4.0 0.00 0.00 0.00 39 1007.6
20240521130027 64 139 0.0 0.0 0.00 0.00 0.00 40 1007.5
20240521124526 62 139 0.0 0.0 0.00 0.00 0.00 43 1007.3
20240521123024 61 139 0.0 0.0 0.00 0.00 0.00 44 1007.0
20240521121524 62 139 0.0 0.0 0.00 0.00 0.00 45 1006.8
20240521120017 63 139 0.0 0.0 0.00 0.00 0.00 42 1006.7
20240521114519 65 119 0.0 1.0 0.00 0.00 0.00 37 1006.5
20240521113032 65 146 0.0 0.0 0.00 0.00 0.00 38 1006.5
20240521111521 65 132 0.0 0.0 0.00 0.00 0.00 38 1006.4
20240521110033 65 139 0.0 3.0 0.00 0.00 0.00 38 1006.6
20240521104512 65 143 0.0 2.0 0.00 0.00 0.00 39 1006.6
20240521103011 64 115 0.0 0.0 0.00 0.00 0.00 40 1006.6
20240521101509 65 122 0.0 0.0 0.00 0.00 0.00 39 1006.7
20240521100008 66 122 1.0 4.0 0.00 0.00 0.00 38 1006.7
20240521094508 65 134 0.0 0.0 0.00 0.00 0.00 39 1006.6
20240521093005 65 141 0.0 0.0 0.00 0.00 0.00 39 1006.6
20240521091504 66 143 0.0 2.0 0.00 0.00 0.00 39 1006.6
20240521090002 66 126 0.0 0.0 0.00 0.00 0.00 38 1006.7
20240521084559 67 15 0.0 1.0 0.00 0.00 0.00 37 1006.8
20240521083058 67 331 0.0 2.0 0.00 0.00 0.00 37 1006.8
20240521081602 68 155 0.0 4.0 0.00 0.00 0.00 36 1006.7
20240521080055 68 163 3.0 6.0 0.00 0.00 0.00 35 1006.7
20240521074551 68 186 0.0 1.0 0.00 0.00 0.00 35 1007.0
20240521073051 68 195 0.0 3.0 0.00 0.00 0.00 35 1007.0
20240521071603 69 148 0.0 2.0 0.00 0.00 0.00 34 1006.9
20240521070059 69 158 0.0 3.0 0.00 0.00 0.00 33 1006.9
20240521064545 70 162 0.0 6.0 0.00 0.00 0.00 32 1006.9
20240521063045 70 154 0.0 4.0 0.00 0.00 0.00 32 1006.8
20240521061544 70 134 0.0 0.0 0.00 0.00 0.00 32 1006.8
20240521060044 71 238 0.0 0.0 0.00 0.00 0.00 32 1006.8
20240521054543 71 230 0.0 0.0 0.00 0.00 0.00 31 1006.9
20240521053047 72 155 0.0 0.0 0.00 0.00 0.00 30 1006.8
20240521051555 73 162 0.0 0.0 0.00 0.00 0.00 29 1006.9
20240521050041 73 244 0.0 2.0 0.00 0.00 0.00 28 1006.9
20240521044541 73 173 0.0 0.0 0.00 0.00 0.00 28 1006.9
20240521043044 74 132 0.0 0.0 0.00 0.00 0.00 27 1006.8
20240521041551 75 162 0.0 0.0 0.00 0.00 0.00 27 1006.7
20240521040040 75 159 0.0 1.0 0.00 0.00 0.00 26 1006.6
20240521034539 76 225 0.0 4.0 0.00 0.00 0.00 25 1006.5
20240521033037 76 172 0.0 2.0 0.00 0.00 0.00 25 1006.4
20240521031537 77 155 0.0 5.0 0.00 0.00 0.00 24 1006.4
20240521030044 77 251 0.0 7.0 0.00 0.00 0.00 24 1006.1
20240521024543 78 163 1.0 6.0 0.00 0.00 0.00 24 1006.0
20240521023035 79 233 0.0 2.0 0.00 0.00 0.00 24 1005.9
20240521021539 79 139 0.0 0.0 0.00 0.00 0.00 24 1005.6
20240521020033 79 169 0.0 0.0 0.00 0.00 0.00 24 1005.7
20240521014541 80 142 0.0 1.0 0.00 0.00 0.00 23 1005.7
20240521013031 81 223 0.0 0.0 0.00 0.00 0.00 23 1005.8
20240521011531 82 109 0.0 3.0 0.00 0.00 0.00 22 1005.8
20240521010028 82 121 0.0 0.0 0.00 0.00 0.00 22 1006.0
20240521004527 80 44 0.0 0.0 0.00 0.00 0.00 23 1006.2
20240521003026 80 10 0.0 3.0 0.00 0.00 0.00 22 1006.4
20240521001524 80 339 2.0 5.0 0.00 0.00 0.00 22 1006.4
20240521000023 80 356 2.0 8.0 0.00 0.00 0.00 22 1006.3